Time;durP1;ratioP1;P1;durP2;ratioP2;P2;SDS_P1;SDS_P2;PMS_P1;PMS_P2;Temp;Humidity;BMP_temperature;BMP_pressure;BME280_temperature;BME280_humidity;BME280_pressure;Samples;Min_cycle;Max_cycle;Signal;HPM_P1;HPM_P2
2023/03/31 00:01:43;;;;;;;;;;;12.30;1.00;;;;;;5096166;28;19931;-72
2023/03/31 00:04:12;;;;;;;;;;;12.30;1.00;;;;;;5082275;28;19990;-72
2023/03/31 00:06:44;;;;;;;;;;;12.30;1.00;;;;;;5091485;28;19908;-72
2023/03/31 00:12:13;;;;;;;;;;;12.10;1.00;;;;;;5096138;28;19911;-78
2023/03/31 00:15:08;;;;;;;;;;;12.20;1.00;;;;;;5096044;28;19908;-78
2023/03/31 00:20:36;;;;;;;;;;;12.20;1.00;;;;;;5075639;28;20375;-79
2023/03/31 00:26:14;;;;;;;;;;;12.10;1.00;;;;;;5076221;28;19912;-78
2023/03/31 00:34:46;;;;;;;;;;;12.00;1.00;;;;;;5095556;28;20302;-80
2023/03/31 00:40:15;;;;;;;;;;;11.90;1.00;;;;;;5095795;28;19915;-75
2023/03/31 00:42:41;;;;;;;;;;;11.90;1.00;;;;;;5070620;28;19908;-75
2023/03/31 00:45:13;;;;;;;;;;;11.90;1.00;;;;;;5075076;28;19911;-75
2023/03/31 00:47:47;;;;;;;;;;;11.80;1.00;;;;;;5085994;28;19912;-75
2023/03/31 00:50:20;;;;;;;;;;;11.80;1.00;;;;;;5095303;28;19903;-75
2023/03/31 00:52:54;;;;;;;;;;;11.80;1.00;;;;;;5088293;28;19962;-75
2023/03/31 01:01:25;;;;;;;;;;;11.70;1.00;;;;;;5075023;28;19991;-80
2023/03/31 01:07:29;;;;;;;;;;;11.60;1.00;;;;;;5078821;28;20264;-80
2023/03/31 01:13:15;;;;;;;;;;;11.60;1.00;;;;;;5027224;28;19916;-81
2023/03/31 01:15:57;;;;;;;;;;;11.50;1.00;;;;;;5032688;28;19912;-81
2023/03/31 01:21:34;;;;;;;;;;;11.50;1.00;;;;;;5012876;28;19953;-81
2023/03/31 01:24:08;;;;;;;;;;;11.40;1.00;;;;;;5013140;28;20392;-80
2023/03/31 01:26:42;;;;;;;;;;;11.40;1.00;;;;;;5017018;28;19940;-75
2023/03/31 01:29:29;;;;;;;;;;;11.30;1.00;;;;;;5032274;28;19919;-75
2023/03/31 01:32:13;;;;;;;;;;;11.30;1.00;;;;;;5025985;28;20320;-75
2023/03/31 01:34:56;;;;;;;;;;;11.20;1.00;;;;;;4996103;28;20025;-75
2023/03/31 01:37:37;;;;;;;;;;;11.20;1.00;;;;;;5018098;28;19905;-75
2023/03/31 01:46:08;;;;;;;;;;;11.20;1.00;;;;;;5063924;28;19911;-80
2023/03/31 01:51:52;;;;;;;;;;;11.30;1.00;;;;;;5074308;28;20375;-81
2023/03/31 01:54:38;;;;;;;;;;;11.20;1.00;;;;;;5074050;28;20371;-80
2023/03/31 01:57:13;;;;;;;;;;;11.20;1.00;;;;;;5090644;28;19957;-80
2023/03/31 02:00:14;;;;;;;;;;;11.20;1.00;;;;;;5094170;28;19923;-80
2023/03/31 02:03:09;;;;;;;;;;;11.20;1.00;;;;;;5094609;28;19950;-81
2023/03/31 02:06:02;;;;;;;;;;;11.20;1.00;;;;;;5094272;28;20252;-80
2023/03/31 02:08:44;;;;;;;;;;;11.20;1.00;;;;;;5074556;28;19908;-81
2023/03/31 02:14:21;;;;;;;;;;;11.20;1.00;;;;;;5078125;28;19996;-80
2023/03/31 02:19:52;;;;;;;;;;;11.10;1.00;;;;;;5077910;28;19966;-80
2023/03/31 02:22:39;;;;;;;;;;;11.00;1.00;;;;;;5078333;28;19995;-80
2023/03/31 02:28:09;;;;;;;;;;;10.90;1.00;;;;;;5077570;28;20058;-80
2023/03/31 02:30:44;;;;;;;;;;;10.80;4.30;;;;;;5077969;28;19904;-80
2023/03/31 02:36:13;;;;;;;;;;;10.80;6.90;;;;;;5077494;28;20396;-80
2023/03/31 02:38:42;;;;;;;;;;;10.80;7.70;;;;;;5077548;28;19913;-80
2023/03/31 02:44:11;;;;;;;;;;;10.90;9.70;;;;;;5077699;28;19912;-81
2023/03/31 02:49:54;;;;;;;;;;;10.80;11.30;;;;;;5089672;28;19915;-81
2023/03/31 02:52:32;;;;;;;;;;;10.80;12.70;;;;;;5097644;28;19911;-81
2023/03/31 02:58:04;;;;;;;;;;;10.90;13.60;;;;;;5095045;28;20318;-75
2023/03/31 03:00:32;;;;;;;;;;;10.80;13.20;;;;;;5086578;28;19935;-75
2023/03/31 03:03:13;;;;;;;;;;;10.90;13.80;;;;;;5077286;28;20271;-75
2023/03/31 03:05:48;;;;;;;;;;;10.90;13.40;;;;;;5077017;28;19915;-75
2023/03/31 03:08:32;;;;;;;;;;;10.80;15.30;;;;;;5060016;28;20271;-75
2023/03/31 03:11:01;;;;;;;;;;;10.70;17.30;;;;;;5059300;28;19912;-74
2023/03/31 03:13:33;;;;;;;;;;;10.60;20.40;;;;;;5077147;28;19912;-75
2023/03/31 03:16:06;;;;;;;;;;;10.70;21.40;;;;;;5077213;28;19966;-75
2023/03/31 03:18:32;;;;;;;;;;;10.70;20.70;;;;;;5091795;28;19908;-75
2023/03/31 03:21:02;;;;;;;;;;;10.70;22.30;;;;;;5075331;28;19991;-75
2023/03/31 03:23:33;;;;;;;;;;;10.70;21.40;;;;;;5058761;28;19950;-75
2023/03/31 03:26:02;;;;;;;;;;;10.80;18.10;;;;;;5076956;28;19970;-80
2023/03/31 03:28:38;;;;;;;;;;;10.80;18.10;;;;;;5095940;28;19912;-80
2023/03/31 03:31:15;;;;;;;;;;;10.90;16.90;;;;;;5097179;28;19962;-80
2023/03/31 03:42:49;;;;;;;;;;;10.90;14.00;;;;;;5076449;28;19916;-75
2023/03/31 03:45:15;;;;;;;;;;;10.90;14.60;;;;;;5076547;28;19905;-75
2023/03/31 03:47:41;;;;;;;;;;;10.90;13.60;;;;;;5076011;28;19909;-75
2023/03/31 03:50:14;;;;;;;;;;;10.90;17.20;;;;;;5058486;28;19952;-75
2023/03/31 03:53:02;;;;;;;;;;;10.90;16.70;;;;;;5076116;28;19987;-76
2023/03/31 03:55:33;;;;;;;;;;;10.90;17.10;;;;;;5076740;28;20263;-78
2023/03/31 03:57:58;;;;;;;;;;;11.00;15.10;;;;;;5091401;28;19998;-77
2023/03/31 04:00:24;;;;;;;;;;;10.90;15.20;;;;;;5094463;28;20410;-78
2023/03/31 04:02:50;;;;;;;;;;;10.90;18.20;;;;;;5076063;28;19905;-78
2023/03/31 04:08:33;;;;;;;;;;;10.80;20.30;;;;;;5078385;28;19966;-78
2023/03/31 04:10:58;;;;;;;;;;;10.90;18.50;;;;;;5096044;28;19904;-78
2023/03/31 04:13:27;;;;;;;;;;;10.80;18.20;;;;;;5096399;28;19953;-80
2023/03/31 04:15:57;;;;;;;;;;;10.80;19.20;;;;;;5095880;28;20030;-81
2023/03/31 04:18:22;;;;;;;;;;;10.80;17.30;;;;;;5075154;28;19951;-80
2023/03/31 04:20:53;;;;;;;;;;;10.80;19.50;;;;;;5057643;28;19959;-81
2023/03/31 04:26:29;;;;;;;;;;;10.70;22.10;;;;;;5075998;28;20316;-77
2023/03/31 04:29:03;;;;;;;;;;;10.70;21.90;;;;;;5088141;28;19912;-78
2023/03/31 04:31:41;;;;;;;;;;;10.60;22.30;;;;;;5075578;28;19908;-78
2023/03/31 04:34:12;;;;;;;;;;;10.70;22.80;;;;;;5057432;28;19912;-78
2023/03/31 04:36:41;;;;;;;;;;;10.70;22.20;;;;;;5075244;28;19916;-78
2023/03/31 04:39:11;;;;;;;;;;;10.70;22.10;;;;;;5064890;28;19912;-77
2023/03/31 04:41:45;;;;;;;;;;;10.70;21.70;;;;;;5087304;28;19908;-80
2023/03/31 04:44:10;;;;;;;;;;;10.60;24.90;;;;;;5094033;28;19947;-81
2023/03/31 04:46:36;;;;;;;;;;;10.70;26.00;;;;;;5077298;28;19904;-81
2023/03/31 04:49:02;;;;;;;;;;;10.70;27.90;;;;;;5087559;28;19957;-80
2023/03/31 04:51:28;;;;;;;;;;;10.70;28.80;;;;;;5079319;28;19907;-81
2023/03/31 04:53:56;;;;;;;;;;;10.70;30.10;;;;;;5085225;28;19904;-81
2023/03/31 04:56:22;;;;;;;;;;;10.80;30.30;;;;;;5079707;28;19915;-83
2023/03/31 04:58:48;;;;;;;;;;;10.80;29.90;;;;;;5075877;28;19909;-78
2023/03/31 05:01:17;;;;;;;;;;;10.80;28.80;;;;;;5093128;28;20377;-79
2023/03/31 05:03:43;;;;;;;;;;;10.80;27.10;;;;;;5095275;28;20346;-79
2023/03/31 05:06:27;;;;;;;;;;;10.90;26.20;;;;;;5095082;28;19957;-79
2023/03/31 05:09:27;;;;;;;;;;;10.90;24.30;;;;;;5094562;28;20351;-79
2023/03/31 05:12:09;;;;;;;;;;;10.90;24.50;;;;;;5079453;28;20413;-79
2023/03/31 05:14:39;;;;;;;;;;;11.30;24.30;;;;;;5074521;28;19908;-78
2023/03/31 05:17:33;;;;;;;;;;;10.70;29.10;;;;;;5074552;28;19905;-79
2023/03/31 05:19:59;;;;;;;;;;;10.70;34.00;;;;;;5056368;28;20263;-79
2023/03/31 05:22:45;;;;;;;;;;;10.70;31.30;;;;;;5057288;28;20307;-79
2023/03/31 05:25:17;;;;;;;;;;;10.80;27.80;;;;;;5074681;28;19912;-79
2023/03/31 05:28:03;;;;;;;;;;;10.70;27.50;;;;;;5056944;28;19908;-80
2023/03/31 05:30:33;;;;;;;;;;;10.80;27.30;;;;;;5074528;28;20275;-81
2023/03/31 05:33:03;;;;;;;;;;;10.80;25.30;;;;;;5074262;28;19938;-80
2023/03/31 05:35:51;;;;;;;;;;;10.70;24.80;;;;;;5074507;28;19911;-81
2023/03/31 05:38:51;;;;;;;;;;;10.70;27.90;;;;;;5059600;28;20021;-81
2023/03/31 05:41:39;;;;;;;;;;;10.70;34.80;;;;;;5089985;28;20006;-81
2023/03/31 05:47:09;;;;;;;;;;;10.80;33.00;;;;;;5073943;28;19911;-81
2023/03/31 05:49:58;;;;;;;;;;;10.70;32.00;;;;;;5087220;28;19997;-81
2023/03/31 05:52:27;;;;;;;;;;;10.80;29.30;;;;;;5073750;28;19905;-81
2023/03/31 05:54:52;;;;;;;;;;;10.70;31.30;;;;;;5056170;28;19904;-80
2023/03/31 05:57:21;;;;;;;;;;;10.80;32.50;;;;;;5074568;28;19905;-79
2023/03/31 06:00:15;;;;;;;;;;;10.70;40.00;;;;;;5058923;28;19917;-81
2023/03/31 06:02:41;;;;;;;;;;;10.70;42.50;;;;;;5071710;28;19957;-81
2023/03/31 06:05:15;;;;;;;;;;;10.70;42.50;;;;;;5094049;28;19908;-81
2023/03/31 06:10:51;;;;;;;;;;;10.80;46.60;;;;;;5083218;28;20016;-80
2023/03/31 06:13:34;;;;;;;;;;;10.80;42.50;;;;;;5074891;28;19911;-81
2023/03/31 06:16:03;;;;;;;;;;;10.80;42.60;;;;;;5070119;28;20251;-81
2023/03/31 06:19:03;;;;;;;;;;;10.80;42.60;;;;;;5094138;28;19998;-81
2023/03/31 06:21:57;;;;;;;;;;;10.70;42.70;;;;;;5093912;28;19914;-81
2023/03/31 06:24:27;;;;;;;;;;;10.80;46.60;;;;;;5071682;28;19912;-81
2023/03/31 06:26:57;;;;;;;;;;;11.00;42.80;;;;;;5073801;28;19904;-81
2023/03/31 06:29:23;;;;;;;;;;;11.00;43.00;;;;;;5073783;28;19916;-81
2023/03/31 06:31:51;;;;;;;;;;;11.10;42.80;;;;;;5073881;28;19915;-81
2023/03/31 06:34:45;;;;;;;;;;;11.00;42.70;;;;;;5074126;28;19959;-82
2023/03/31 06:37:21;;;;;;;;;;;11.00;42.90;;;;;;5074558;28;19905;-81
2023/03/31 06:39:57;;;;;;;;;;;11.00;42.70;;;;;;5077608;28;19912;-82
2023/03/31 06:42:22;;;;;;;;;;;11.00;42.80;;;;;;5075446;28;19909;-81
2023/03/31 06:44:48;;;;;;;;;;;11.00;42.70;;;;;;5073695;28;19958;-79
2023/03/31 06:47:13;;;;;;;;;;;11.00;42.70;;;;;;5073329;28;19905;-79
2023/03/31 06:49:39;;;;;;;;;;;11.30;43.20;;;;;;5055386;28;20321;-79
2023/03/31 06:52:05;;;;;;;;;;;11.10;42.80;;;;;;5055402;28;20363;-79
2023/03/31 06:54:30;;;;;;;;;;;11.00;42.70;;;;;;5074113;28;19911;-80
2023/03/31 06:56:56;;;;;;;;;;;11.00;42.70;;;;;;5077212;28;19957;-82
2023/03/31 06:59:21;;;;;;;;;;;11.00;42.70;;;;;;5077366;28;19957;-82
2023/03/31 07:01:49;;;;;;;;;;;11.10;42.80;;;;;;5077064;28;19911;-82
2023/03/31 07:04:14;;;;;;;;;;;11.20;41.30;;;;;;5077020;28;19905;-82
2023/03/31 07:06:40;;;;;;;;;;;11.20;34.40;;;;;;5076982;28;19991;-82
2023/03/31 07:12:33;;;;;;;;;;;11.30;31.00;;;;;;5087631;28;19915;-83
2023/03/31 07:18:01;;;;;;;;;;;11.20;31.10;;;;;;5092854;28;19943;-85
2023/03/31 07:23:29;;;;;;;;;;;11.20;43.00;;;;;;5097793;28;19911;-85
2023/03/31 07:26:10;;;;;;;;;;;11.30;42.90;;;;;;5078905;28;19995;-87
2023/03/31 07:31:39;;;;;;;;;;;11.00;42.70;;;;;;5083430;28;19927;-80
2023/03/31 07:34:06;;;;;;;;;;;11.10;43.00;;;;;;5078542;28;19908;-80
2023/03/31 07:39:35;;;;;;;;;;;11.00;42.80;;;;;;5076352;28;19915;-79
2023/03/31 07:42:27;;;;;;;;;;;11.00;42.70;;;;;;5058485;28;19965;-79
2023/03/31 07:44:56;;;;;;;;;;;11.00;42.80;;;;;;5080533;28;19953;-82
2023/03/31 07:47:23;;;;;;;;;;;11.00;42.80;;;;;;5083341;28;20422;-79
2023/03/31 07:49:57;;;;;;;;;;;10.90;42.70;;;;;;5094700;28;19912;-79
2023/03/31 07:52:57;;;;;;;;;;;11.00;43.00;;;;;;5081794;28;19923;-79
2023/03/31 07:55:45;;;;;;;;;;;11.00;46.90;;;;;;5083450;28;20314;-79
2023/03/31 07:58:11;;;;;;;;;;;11.00;42.80;;;;;;5062833;28;19909;-79
2023/03/31 08:00:37;;;;;;;;;;;11.10;46.80;;;;;;5065971;28;19913;-79
2023/03/31 08:03:04;;;;;;;;;;;11.30;43.10;;;;;;5069223;28;19916;-79
2023/03/31 08:05:57;;;;;;;;;;;11.30;43.10;;;;;;5065129;28;19938;-79
2023/03/31 08:08:24;;;;;;;;;;;11.30;43.10;;;;;;5080477;28;20378;-77
2023/03/31 08:11:03;;;;;;;;;;;11.50;43.30;;;;;;5092461;28;20505;-81
2023/03/31 08:13:33;;;;;;;;;;;11.80;43.50;;;;;;5057700;28;19947;-80
2023/03/31 08:15:59;;;;;;;;;;;12.00;43.60;;;;;;5088743;28;19911;-80
2023/03/31 08:18:33;;;;;;;;;;;12.10;27.70;;;;;;5095970;28;19907;-80
2023/03/31 08:21:15;;;;;;;;;;;12.10;24.50;;;;;;5082632;28;20302;-80
2023/03/31 08:23:45;;;;;;;;;;;12.20;23.30;;;;;;5079684;28;19908;-80
2023/03/31 08:26:17;;;;;;;;;;;12.30;24.90;;;;;;5082309;28;19904;-80
2023/03/31 08:31:46;;;;;;;;;;;12.50;21.60;;;;;;5075169;28;19919;-80
2023/03/31 08:34:21;;;;;;;;;;;12.40;18.40;;;;;;5075370;28;20302;-80
2023/03/31 08:36:47;;;;;;;;;;;12.50;26.10;;;;;;5057477;28;19905;-80
2023/03/31 08:39:15;;;;;;;;;;;12.70;27.20;;;;;;5074921;28;19916;-80
2023/03/31 08:42:00;;;;;;;;;;;12.90;18.40;;;;;;5075278;28;19912;-80
2023/03/31 08:47:30;;;;;;;;;;;13.30;7.20;;;;;;5076079;28;19912;-74
2023/03/31 08:49:58;;;;;;;;;;;13.40;1.00;;;;;;5075974;28;19927;-75
2023/03/31 08:52:44;;;;;;;;;;;13.20;1.00;;;;;;5075413;28;19911;-74
2023/03/31 08:55:12;;;;;;;;;;;13.20;1.00;;;;;;5075302;28;20313;-74
2023/03/31 08:57:45;;;;;;;;;;;13.30;1.00;;;;;;5075404;28;19930;-74
2023/03/31 09:00:21;;;;;;;;;;;13.10;1.00;;;;;;5075319;28;19912;-74
2023/03/31 09:02:55;;;;;;;;;;;13.10;1.00;;;;;;5075083;28;19912;-74
2023/03/31 09:05:34;;;;;;;;;;;13.00;1.00;;;;;;5075174;28;20344;-74
2023/03/31 09:08:10;;;;;;;;;;;13.10;1.00;;;;;;5074400;28;19991;-74
2023/03/31 09:10:50;;;;;;;;;;;13.00;1.00;;;;;;5084013;28;19924;-74
2023/03/31 09:13:39;;;;;;;;;;;13.00;1.00;;;;;;5095299;28;19919;-74
2023/03/31 09:16:09;;;;;;;;;;;13.00;1.00;;;;;;5095395;28;20294;-74
2023/03/31 09:18:36;;;;;;;;;;;13.20;1.00;;;;;;5095151;28;19908;-74
2023/03/31 09:21:10;;;;;;;;;;;13.50;1.00;;;;;;5095007;28;20013;-74
2023/03/31 09:23:45;;;;;;;;;;;13.80;1.00;;;;;;5087106;28;19904;-74
2023/03/31 09:26:23;;;;;;;;;;;13.80;1.00;;;;;;5087313;28;19907;-74
2023/03/31 09:29:06;;;;;;;;;;;14.10;1.00;;;;;;5115301;28;19910;-74
2023/03/31 09:31:31;;;;;;;;;;;14.10;1.00;;;;;;5107414;28;20428;-73
2023/03/31 09:34:00;;;;;;;;;;;14.00;1.00;;;;;;5094629;28;19908;-73
2023/03/31 09:36:27;;;;;;;;;;;13.80;1.00;;;;;;5094679;28;19911;-72
2023/03/31 09:38:53;;;;;;;;;;;13.80;1.00;;;;;;5085967;28;19913;-73
2023/03/31 09:41:19;;;;;;;;;;;13.70;1.00;;;;;;5075058;28;19974;-73
2023/03/31 09:43:45;;;;;;;;;;;13.80;1.00;;;;;;5074330;28;20343;-73
2023/03/31 09:46:15;;;;;;;;;;;13.90;1.00;;;;;;5074631;28;20322;-73
2023/03/31 09:48:43;;;;;;;;;;;14.20;1.00;;;;;;5074390;28;19962;-73
2023/03/31 09:51:15;;;;;;;;;;;14.40;1.00;;;;;;5074220;28;19904;-73
2023/03/31 09:54:01;;;;;;;;;;;14.80;1.00;;;;;;5082184;28;19908;-74
2023/03/31 09:56:44;;;;;;;;;;;14.90;1.00;;;;;;5035323;28;20495;-73
2023/03/31 09:59:13;;;;;;;;;;;14.90;1.00;;;;;;5031807;28;19984;-73
2023/03/31 10:01:39;;;;;;;;;;;14.70;1.00;;;;;;5032070;28;19968;-73
2023/03/31 10:04:13;;;;;;;;;;;14.90;1.00;;;;;;5031698;28;20222;-73
2023/03/31 10:06:41;;;;;;;;;;;15.00;1.00;;;;;;5039118;28;19909;-73
2023/03/31 10:09:09;;;;;;;;;;;15.00;1.00;;;;;;5051158;28;19904;-73
2023/03/31 10:11:35;;;;;;;;;;;14.90;1.00;;;;;;5050661;28;19955;-73
2023/03/31 10:14:12;;;;;;;;;;;14.90;1.00;;;;;;5034117;28;19905;-73
2023/03/31 10:16:46;;;;;;;;;;;15.00;1.00;;;;;;5051995;28;19905;-74
2023/03/31 10:19:23;;;;;;;;;;;14.80;1.00;;;;;;5034905;28;19913;-74
2023/03/31 10:22:15;;;;;;;;;;;14.90;1.00;;;;;;5050929;28;20003;-74
2023/03/31 10:24:42;;;;;;;;;;;14.90;1.00;;;;;;5035096;28;19979;-74
2023/03/31 10:27:22;;;;;;;;;;;14.70;1.00;;;;;;5038501;28;19905;-75
2023/03/31 10:29:51;;;;;;;;;;;14.40;1.00;;;;;;5037104;28;19908;-76
2023/03/31 10:32:33;;;;;;;;;;;14.10;1.00;;;;;;5041245;28;19970;-73
2023/03/31 10:35:05;;;;;;;;;;;13.90;1.00;;;;;;5077483;28;20396;-73
2023/03/31 10:37:32;;;;;;;;;;;13.60;1.00;;;;;;5076883;28;19969;-72
2023/03/31 10:39:58;;;;;;;;;;;13.10;1.00;;;;;;5093109;28;19911;-71
2023/03/31 10:42:27;;;;;;;;;;;12.40;1.00;;;;;;5097795;28;19904;-71
2023/03/31 10:45:13;;;;;;;;;;;11.70;1.00;;;;;;5097845;28;19904;-71
2023/03/31 10:47:40;;;;;;;;;;;11.10;1.00;;;;;;5073846;28;19996;-71
2023/03/31 10:50:12;;;;;;;;;;;10.70;1.00;;;;;;5081296;28;19917;-71
2023/03/31 10:52:47;;;;;;;;;;;10.30;1.00;;;;;;5086266;28;19969;-71
2023/03/31 10:55:17;;;;;;;;;;;10.10;1.00;;;;;;5079454;28;19908;-71
2023/03/31 10:57:49;;;;;;;;;;;9.90;1.00;;;;;;5076988;28;19927;-71
2023/03/31 11:00:19;;;;;;;;;;;9.80;1.00;;;;;;5094965;28;19994;-72
2023/03/31 11:03:17;;;;;;;;;;;9.80;1.00;;;;;;5095768;28;19904;-71
2023/03/31 11:05:50;;;;;;;;;;;9.90;1.00;;;;;;5032448;28;19908;-72
2023/03/31 11:08:48;;;;;;;;;;;10.00;1.00;;;;;;5034800;28;19905;-73
2023/03/31 11:11:20;;;;;;;;;;;10.30;1.00;;;;;;4969411;28;19910;-72
2023/03/31 11:14:01;;;;;;;;;;;10.50;1.00;;;;;;4975943;28;19913;-72
2023/03/31 11:16:32;;;;;;;;;;;10.90;1.00;;;;;;4975573;28;19906;-72
2023/03/31 11:19:10;;;;;;;;;;;11.20;1.00;;;;;;4958944;28;20499;-72
2023/03/31 11:21:40;;;;;;;;;;;11.50;1.00;;;;;;4975014;28;19917;-73
2023/03/31 11:24:08;;;;;;;;;;;11.70;1.00;;;;;;4975434;28;20349;-73
2023/03/31 11:26:36;;;;;;;;;;;12.10;1.00;;;;;;4974642;28;19922;-73
2023/03/31 11:29:08;;;;;;;;;;;12.40;1.00;;;;;;4974983;28;19987;-72
2023/03/31 11:31:37;;;;;;;;;;;12.70;1.00;;;;;;4974375;28;20361;-73
2023/03/31 11:34:25;;;;;;;;;;;13.00;1.00;;;;;;4959868;28;20321;-74
2023/03/31 11:37:04;;;;;;;;;;;13.10;1.00;;;;;;4975625;28;19910;-74
2023/03/31 11:39:39;;;;;;;;;;;13.50;1.00;;;;;;4974808;28;20021;-74
2023/03/31 11:42:13;;;;;;;;;;;14.00;1.00;;;;;;4996968;28;19910;-74
2023/03/31 11:44:41;;;;;;;;;;;14.10;1.00;;;;;;4995340;28;19996;-74
2023/03/31 11:47:14;;;;;;;;;;;14.40;1.00;;;;;;5046039;28;19996;-74
2023/03/31 11:49:53;;;;;;;;;;;14.50;1.00;;;;;;5088750;28;20006;-74
2023/03/31 11:52:30;;;;;;;;;;;14.70;1.00;;;;;;5081121;28;19910;-74
2023/03/31 11:54:58;;;;;;;;;;;14.80;1.00;;;;;;5085002;28;19908;-75
2023/03/31 11:57:28;;;;;;;;;;;14.80;1.00;;;;;;5076847;28;19912;-74
2023/03/31 11:59:56;;;;;;;;;;;14.80;1.00;;;;;;5075343;28;19908;-74
2023/03/31 12:02:34;;;;;;;;;;;14.80;1.00;;;;;;5075809;28;19908;-74
2023/03/31 12:05:02;;;;;;;;;;;14.70;1.00;;;;;;5072988;28;19916;-75
2023/03/31 12:07:33;;;;;;;;;;;14.70;1.00;;;;;;5077940;28;19969;-74
2023/03/31 12:10:04;;;;;;;;;;;14.40;1.00;;;;;;5076048;28;19944;-74
2023/03/31 12:12:44;;;;;;;;;;;14.20;1.00;;;;;;5075735;28;19946;-74
2023/03/31 12:15:15;;;;;;;;;;;14.00;1.00;;;;;;5096076;28;19935;-73
2023/03/31 12:17:43;;;;;;;;;;;13.70;1.00;;;;;;5088327;28;19958;-74
2023/03/31 12:20:32;;;;;;;;;;;13.30;1.00;;;;;;5080872;28;19912;-73
2023/03/31 12:23:05;;;;;;;;;;;13.10;1.00;;;;;;5071303;28;20015;-74
2023/03/31 12:25:56;;;;;;;;;;;12.90;1.00;;;;;;5088361;28;19939;-73
2023/03/31 12:28:33;;;;;;;;;;;13.10;1.00;;;;;;5079125;28;20244;-73
2023/03/31 12:31:00;;;;;;;;;;;13.10;1.00;;;;;;5087249;28;20356;-74
2023/03/31 12:33:30;;;;;;;;;;;13.10;1.00;;;;;;5086632;28;19914;-75
2023/03/31 12:36:06;;;;;;;;;;;13.20;1.00;;;;;;5081906;28;19909;-73
2023/03/31 12:38:47;;;;;;;;;;;13.10;1.00;;;;;;5094851;28;19915;-73
2023/03/31 12:41:33;;;;;;;;;;;13.10;1.00;;;;;;5091950;28;20525;-72
2023/03/31 12:44:09;;;;;;;;;;;13.00;1.00;;;;;;5073444;28;20293;-75
2023/03/31 12:46:46;;;;;;;;;;;13.00;1.00;;;;;;5074954;28;19978;-72
2023/03/31 12:49:21;;;;;;;;;;;12.90;1.00;;;;;;5081207;28;20479;-70
2023/03/31 12:51:59;;;;;;;;;;;12.50;1.00;;;;;;5078203;28;20007;-71
2023/03/31 12:54:39;;;;;;;;;;;12.10;1.00;;;;;;5074372;28;19939;-71
2023/03/31 12:57:08;;;;;;;;;;;12.10;1.00;;;;;;5076580;28;19953;-72
2023/03/31 12:59:38;;;;;;;;;;;12.00;1.00;;;;;;5075091;28;19935;-72
2023/03/31 13:02:06;;;;;;;;;;;12.00;1.00;;;;;;5081113;28;20251;-71
2023/03/31 13:04:39;;;;;;;;;;;11.90;1.00;;;;;;5079908;28;19955;-72
2023/03/31 13:07:12;;;;;;;;;;;12.00;1.00;;;;;;5079766;28;19908;-73
2023/03/31 13:09:41;;;;;;;;;;;12.00;1.00;;;;;;5079144;28;19908;-73
2023/03/31 13:12:13;;;;;;;;;;;12.20;1.00;;;;;;5080512;28;19908;-72
2023/03/31 13:14:41;;;;;;;;;;;12.30;1.00;;;;;;5078948;28;20003;-72
2023/03/31 13:17:45;;;;;;;;;;;12.40;1.00;;;;;;5075961;28;19908;-74
2023/03/31 13:20:22;;;;;;;;;;;12.50;1.00;;;;;;5046264;28;20307;-73
2023/03/31 13:22:58;;;;;;;;;;;12.80;1.00;;;;;;5044403;28;19932;-73
2023/03/31 13:25:26;;;;;;;;;;;12.90;1.00;;;;;;5049926;28;19947;-73
2023/03/31 13:28:02;;;;;;;;;;;13.10;1.00;;;;;;5043879;28;19912;-74
2023/03/31 13:30:34;;;;;;;;;;;13.50;1.00;;;;;;5047941;28;19943;-73
2023/03/31 13:33:19;;;;;;;;;;;13.60;1.00;;;;;;5044184;28;19917;-73
2023/03/31 13:35:46;;;;;;;;;;;13.70;1.00;;;;;;5051352;28;20370;-74
2023/03/31 13:38:23;;;;;;;;;;;13.70;1.00;;;;;;5050146;28;20328;-74
2023/03/31 13:40:55;;;;;;;3.45;0.80;;;13.70;1.00;;;;;;5043879;28;20488;-74
2023/03/31 13:43:52;;;;;;;3.17;0.50;;;13.60;1.00;;;;;;5040716;28;20187;-73
2023/03/31 13:46:31;;;;;;;1.00;0.60;;;13.60;1.00;;;;;;5049156;28;20408;-73
2023/03/31 13:49:34;;;;;;;0.80;0.50;;;13.50;1.00;;;;;;5041691;28;20536;-73
2023/03/31 13:52:03;;;;;;;1.17;0.70;;;13.30;1.00;;;;;;5071047;28;20409;-74
2023/03/31 13:54:52;;;;;;;1.00;0.60;;;13.50;1.00;;;;;;5081639;28;20504;-75
2023/03/31 13:57:37;;;;;;;0.67;0.57;;;13.60;1.00;;;;;;5076540;28;20423;-73
2023/03/31 14:00:24;;;;;;;0.73;0.60;;;13.70;1.00;;;;;;5079714;28;20466;-75
2023/03/31 14:03:03;;;;;;;3.90;0.60;;;14.00;1.00;;;;;;5058889;28;20419;-75
2023/03/31 14:05:49;;;;;;;0.70;0.70;;;14.00;1.00;;;;;;5081661;28;20399;-73
2023/03/31 14:08:48;;;;;;;3.33;1.03;;;14.10;1.00;;;;;;5080353;28;20495;-73
2023/03/31 14:11:28;;;;;;;6.00;0.70;;;14.10;1.00;;;;;;5018772;28;20439;-74
2023/03/31 14:14:06;;;;;;;1.67;0.53;;;14.20;1.00;;;;;;5030011;28;20491;-73
2023/03/31 14:16:49;;;;;;;3.90;0.80;;;14.30;1.00;;;;;;5030175;28;20871;-73
2023/03/31 14:19:36;;;;;;;3.40;0.73;;;14.10;1.00;;;;;;5030238;28;20463;-73
2023/03/31 14:22:39;;;;;;;4.63;0.90;;;14.30;1.00;;;;;;5029586;28;20406;-73
2023/03/31 14:25:21;;;;;;;4.50;0.60;;;14.40;1.00;;;;;;5030580;28;20370;-73
2023/03/31 14:28:12;;;;;;;1.83;0.70;;;14.70;1.00;;;;;;5030120;28;20509;-73
2023/03/31 14:30:41;;;;;;;1.30;0.53;;;14.80;1.00;;;;;;5025212;28;20427;-74
2023/03/31 14:33:45;;;;;;;2.57;0.60;;;14.90;1.00;;;;;;5029661;28;20482;-79
2023/03/31 14:36:27;;;;;;;1.27;0.60;;;15.00;1.00;;;;;;5022808;28;20462;-84
2023/03/31 14:39:08;;;;;;;2.03;0.70;;;15.30;1.00;;;;;;5011691;28;20400;-83
2023/03/31 14:44:57;;;;;;;0.80;0.50;;;15.30;1.00;;;;;;5031855;28;21209;-87
2023/03/31 14:50:46;;;;;;;3.03;0.80;;;15.30;1.00;;;;;;5093864;28;20419;-87
2023/03/31 14:53:51;;;;;;;1.77;0.90;;;15.20;1.00;;;;;;5094085;28;20411;-87
2023/03/31 14:56:57;;;;;;;1.67;0.80;;;15.20;1.00;;;;;;5085738;28;20420;-88
2023/03/31 15:00:05;;;;;;;2.20;0.60;;;15.40;1.00;;;;;;5068090;28;20460;-85
2023/03/31 15:02:58;;;;;;;4.30;1.30;;;15.30;1.00;;;;;;5080461;28;20448;-86
2023/03/31 15:06:03;;;;;;;3.00;0.93;;;15.40;1.00;;;;;;5071258;28;20425;-83
2023/03/31 15:09:09;;;;;;;2.50;0.80;;;15.50;1.00;;;;;;5058169;28;20437;-84
2023/03/31 15:15:45;;;;;;;3.13;0.93;;;15.10;1.00;;;;;;5072826;28;20420;-85
2023/03/31 15:18:33;;;;;;;9.90;1.33;;;14.70;1.00;;;;;;5064702;28;20512;-85
2023/03/31 15:20:59;;;;;;;;;;;14.20;1.00;;;;;;5058910;28;20249;-84
2023/03/31 15:23:26;;;;;;;;;;;13.60;1.00;;;;;;5059180;28;20002;-80
2023/03/31 15:26:18;;;;;;;;;;;13.20;1.00;;;;;;5057987;28;19912;-79
2023/03/31 15:28:53;;;;;;;;;;;12.90;1.00;;;;;;5073386;28;19909;-79
2023/03/31 15:31:18;;;;;;;;;;;12.70;1.00;;;;;;5081634;28;19911;-79
2023/03/31 15:33:45;;;;;;;;;;;12.60;1.00;;;;;;5087836;28;20264;-79
2023/03/31 15:36:11;;;;;;;;;;;12.60;1.00;;;;;;5076398;28;19938;-80
2023/03/31 15:38:37;;;;;;;;;;;12.60;1.00;;;;;;5075802;28;20376;-79
2023/03/31 15:41:16;;;;;;;;;;;12.70;1.00;;;;;;5075316;28;20062;-79
2023/03/31 15:44:17;;;;;;;;;;;12.70;1.00;;;;;;5093336;28;19912;-78
2023/03/31 15:46:43;;;;;;;;;;;12.90;1.00;;;;;;5027008;28;20289;-78
2023/03/31 15:49:23;;;;;;;;;;;13.20;1.00;;;;;;5027731;28;19913;-78
2023/03/31 15:51:49;;;;;;;;;;;13.30;1.00;;;;;;5015089;28;19909;-85
2023/03/31 16:03:34;;;;;;;;;;;13.70;1.00;;;;;;5022305;28;19955;-83
2023/03/31 16:12:15;;;;;;;;;;;13.60;1.00;;;;;;5033435;28;19912;-83
2023/03/31 16:14:51;;;;;;;;;;;13.30;1.00;;;;;;5033878;28;19905;-84
2023/03/31 16:17:20;;;;;;;;;;;13.20;1.00;;;;;;5033692;28;19966;-82
2023/03/31 16:22:51;;;;;;;;;;;13.30;1.00;;;;;;5076024;28;19911;-78
2023/03/31 16:28:27;;;;;;;;;;;13.00;1.00;;;;;;5075425;28;19911;-80
2023/03/31 16:30:53;;;;;;;;;;;12.80;1.00;;;;;;5080398;28;19916;-79
2023/03/31 16:33:30;;;;;;;;;;;12.60;1.00;;;;;;5075654;28;19908;-81
2023/03/31 16:36:16;;;;;;;;;;;12.30;1.00;;;;;;5057437;28;19904;-80
2023/03/31 16:38:45;;;;;;;;;;;12.20;1.00;;;;;;5075836;28;19911;-84
2023/03/31 16:41:14;;;;;;;;;;;11.90;1.00;;;;;;5057502;28;19919;-83
2023/03/31 16:43:45;;;;;;;;;;;11.80;1.00;;;;;;5075837;28;19908;-86
2023/03/31 16:49:16;;;;;;;;;;;11.70;1.00;;;;;;5075459;28;20044;-85
2023/03/31 16:52:09;;;;;;;;;;;11.60;1.00;;;;;;5059385;28;19959;-90
2023/03/31 16:58:15;;;;;;;;;;;11.40;1.00;;;;;;5075299;28;20271;-89
2023/03/31 17:00:52;;;;;;;;;;;11.50;1.00;;;;;;5065339;28;20363;-90
2023/03/31 17:06:20;;;;;;;;;;;11.40;1.00;;;;;;5075466;28;19927;-92
2023/03/31 17:11:49;;;;;;;;;;;11.30;1.00;;;;;;5090148;28;19915;-92
2023/03/31 17:14:39;;;;;;;;;;;11.40;1.00;;;;;;5077091;28;19904;-90
2023/03/31 17:20:08;;;;;;;;;;;11.30;1.00;;;;;;5094447;28;20432;-86
2023/03/31 17:22:35;;;;;;;;;;;11.20;1.00;;;;;;5059059;28;19958;-79
2023/03/31 17:25:04;;;;;;;;;;;11.30;2.70;;;;;;5056090;28;19950;-79
2023/03/31 17:27:59;;;;;;;;;;;11.30;6.60;;;;;;5072165;28;19909;-80
2023/03/31 17:30:25;;;;;;;;;;;11.30;8.00;;;;;;5072460;28;20278;-80
2023/03/31 17:32:50;;;;;;;;;;;11.20;8.80;;;;;;5074292;28;20007;-80
2023/03/31 17:41:22;;;;;;;;;;;11.20;7.70;;;;;;5078902;28;20291;-83
2023/03/31 17:43:57;;;;;;;;;;;11.30;7.30;;;;;;5085894;28;19908;-83